x

Destruction Island, Wa (desw1) Weather Station

2:00 - Fri 27th May 2016 All times are PDT. -7 hours from GMT.

  • Wind
    3mph, 5mph gusts
  • Aire Temp 55°f
  • Sea Pressure 1022.5mb
  • Destruction Island, Wa
  • Destruction Island, Wa

More Historic Weather Station data

Upgrade to MSW Pro to gain access to the past 30 days of data for over 8000 Wavebouys and Weather Stations around the globe.

Join Pro

Comparision Forecast

View Surf forecast
   
vie 05/27 2:00 3 5 mph 1022.5mb 55f
1:00 14 17 mph 1022.6mb 51f
12:00 11 13 mph 1022.6mb 51f
11:00 8 9 mph 1022.3mb 54f
10:00 7
mph
1022.2mb 52f
9:00 7 8 mph 1022mb 53f
8:00 13 14 mph 1021.7mb 52f
7:00 15 16 mph 1021.6mb 52f
6:00 17 18 mph 1021.3mb 51f
5:00 17 20 mph 1021.2mb 51f
4:00 17 20 mph 1021.3mb 52f
3:00 13 14 mph 1021.8mb 51f
2:00 15 16 mph 1022mb 51f
1:00 15 16 mph 1022.1mb 52f
12:00 16 20 mph 1022.4mb 52f
jue 05/26 11:00 21 23 mph 1022.6mb 52f
10:00 13 14 mph 1022.8mb 52f
9:00 13 14 mph 1022.5mb 52f
8:00 15 16 mph 1022.6mb 53f
7:00 14 16 mph 1022.8mb 53f
6:00 7 8 mph 1023.1mb 54f
5:00 11 14 mph 1023.5mb 53f
4:00 16 17 mph 1023.7mb 53f
3:00 13 14 mph 1023.9mb 53f
2:00 14 16 mph 1024mb 53f
1:00 14 15 mph 1023.8mb 53f
12:00 14 15 mph 1023.7mb 52f
11:00 9 11 mph 1023.6mb 51f
10:00 10
mph
1023.3mb 52f
9:00 11 14 mph 1023.2mb 52f
8:00 15 17 mph 1023.3mb 50f
7:00 16 17 mph 1023.2mb 50f
6:00 17 20 mph 1023.2mb 51f
5:00 16 18 mph 1022.9mb 52f
4:00 13 16 mph 1023mb 53f
3:00 17 20 mph 1023.3mb 53f
2:00 16 20 mph 1023.3mb 53f
1:00 13 15 mph 1023.3mb 53f
12:00 13 15 mph 1023.5mb 53f
mié 05/25 11:00 10 11 mph 1023.7mb 53f
10:00 11 13 mph 1023.6mb 53f
9:00 3 6 mph 1023.6mb 53f
8:00 11 14 mph 1023.5mb 54f
7:00 10 11 mph 1023.3mb 54f
6:00 11 13 mph 1023.5mb 54f
5:00 14
mph
1023.5mb 54f
4:00 13 14 mph 1023.4mb 54f
3:00 13 14 mph 1023.2mb 54f
2:00 13 14 mph 1023.1mb 54f
1:00 10 13 mph 1022.7mb 54f
12:00 6 7 mph 1022.3mb 55f
11:00 7 9 mph 1022mb 54f
10:00 9 10 mph 1021.5mb 54f
9:00 6
mph
1021.1mb 53f
8:00 5 7 mph 1020.6mb 53f
7:00 10 11 mph 1020.3mb 53f
6:00 8 9 mph 1019.9mb 53f
5:00 14 15 mph 1019.4mb 53f
4:00 11 13 mph 1019.1mb 54f
3:00 5 6 mph 1019mb 54f
2:00 3
mph
1018.7mb 54f
1:00 5
mph
1018.7mb 54f
12:00 6
mph
1018.6mb 54f
mar 05/24 11:00 8 9 mph 1018.4mb 54f
10:00 8
mph
1018.1mb 54f
9:00 7
mph
1017.7mb 54f
8:00 6
mph
1017.4mb 56f
7:00 6 7 mph 1017.4mb 55f
6:00 10
mph
1017.5mb 55f
5:00 7 8 mph 1017.5mb 56f
4:00 6 7 mph 1017.5mb 57f
3:00 8 9 mph 1017.5mb 57f
2:00 8 9 mph 1017.4mb 57f
1:00 9 11 mph 1017.2mb 54f
12:00 14
mph
1016.8mb 53f
11:00 9
mph
1016.6mb 54f
10:00 2
mph
1016.2mb 53f
9:00 3 5 mph 1015.9mb 53f
8:00 3
mph
1015.7mb 52f
7:00 7
mph
1015.2mb 52f
6:00 6 7 mph 1015mb 51f
5:00 5
mph
1015.1mb 52f
4:00 3 5 mph 1015.1mb 52f
3:00 8 10 mph 1015.1mb 53f
2:00 14 15 mph 1015mb 53f
1:00 13 14 mph 1015mb 53f
12:00 11 13 mph 1014.9mb 53f
lun 05/23 11:00 14
mph
1014.6mb 54f